Fort Kent, Maine
Current Conditions -  °F | °C
As of 2:53 AM on Monday 22 Dec 2014 (Local Time) from KFVE Reporting Station
Overcast Overcast  
Wind Chill: 11°   Ceiling: 1500
Heat Index: 18°   Visibility: 10mi
Dew Point: 17°   Wind: 5mph
Humidity: 96%   Direction: 110°ESE
Pressure: 30.35"   Gusts: NA
Location:  47.26°N, 68.59°W
Report Text: KFVE 220753Z AUTO 11004KT 10SM BKN015 OVC020 M08/M08 A3035 RMK AO2 SLP294 T10781083
Loading
Personal Weather Stations






























Interactive Weather Map New forecast layout! Learn more

10-Day Weather Forecast

Advertisements
Track Severe Weather on mobile